Time;durP1;ratioP1;P1;durP2;ratioP2;P2;SDS_P1;SDS_P2;PMS_P1;PMS_P2;Temp;Humidity;BMP_temperature;BMP_pressure;BME280_temperature;BME280_humidity;BME280_pressure;Samples;Min_cycle;Max_cycle;Signal;HPM_P1;HPM_P2
2022/04/02 00:01:23;;;;;;;0.90;0.90;;;0.30;99.90;;;;;;5033206;28;20231;-78
2022/04/02 00:03:49;;;;;;;0.80;0.80;;;0.30;99.90;;;;;;5014197;28;20186;-77
2022/04/02 00:06:15;;;;;;;0.90;0.90;;;0.20;99.90;;;;;;5013408;28;20176;-77
2022/04/02 00:08:41;;;;;;;0.90;0.90;;;0.30;99.90;;;;;;5013461;28;20230;-77
2022/04/02 00:11:07;;;;;;;0.90;0.90;;;0.20;99.90;;;;;;5012651;28;20561;-78
2022/04/02 00:13:33;;;;;;;0.80;0.80;;;0.50;99.90;;;;;;5012989;28;20180;-77
2022/04/02 00:15:59;;;;;;;0.90;0.90;;;0.30;99.90;;;;;;5012854;28;20708;-78
2022/04/02 00:18:25;;;;;;;0.90;0.90;;;0.20;99.90;;;;;;5014487;28;20207;-77
2022/04/02 00:20:50;;;;;;;0.90;0.90;;;0.50;99.90;;;;;;5030147;28;20198;-77
2022/04/02 00:26:02;;;;;;;0.80;0.80;;;0.30;99.90;;;;;;5017027;28;20211;-77
2022/04/02 00:28:28;;;;;;;0.80;0.80;;;0.30;99.90;;;;;;5016009;28;20180;-77
2022/04/02 00:30:54;;;;;;;0.80;0.80;;;0.30;99.90;;;;;;5052702;28;20234;-78
2022/04/02 00:33:19;;;;;;;0.90;0.90;;;0.30;99.90;;;;;;5041028;28;20176;-78
2022/04/02 00:35:45;;;;;;;0.97;0.97;;;0.80;99.90;;;;;;5014878;28;20184;-77
2022/04/02 00:38:10;;;;;;;0.80;0.80;;;0.40;99.90;;;;;;5021862;28;20187;-79
2022/04/02 00:40:37;;;;;;;0.80;0.80;;;0.90;99.90;;;;;;5024711;28;20215;-77
2022/04/02 00:43:04;;;;;;;0.80;0.80;;;0.40;99.90;;;;;;5017554;28;20180;-78
2022/04/02 00:45:29;;;;;;;0.80;0.80;;;0.40;99.90;;;;;;5013927;28;20212;-78
2022/04/02 00:47:55;;;;;;;0.87;0.87;;;0.40;99.90;;;;;;5015245;28;20235;-79
2022/04/02 00:50:21;;;;;;;0.80;0.80;;;0.40;99.90;;;;;;5012715;28;20274;-77
2022/04/02 00:52:46;;;;;;;0.90;0.90;;;0.50;99.90;;;;;;5015031;28;20589;-77
2022/04/02 00:55:12;;;;;;;0.90;0.90;;;0.40;99.90;;;;;;5016200;28;20197;-79
2022/04/02 00:57:38;;;;;;;0.80;0.80;;;0.40;99.90;;;;;;5020682;28;20182;-76
2022/04/02 01:00:05;;;;;;;0.90;0.90;;;0.40;99.90;;;;;;5030671;28;20191;-76
2022/04/02 01:02:30;;;;;;;0.90;0.90;;;0.30;99.90;;;;;;5015999;28;20349;-75
2022/04/02 01:04:56;;;;;;;0.80;0.80;;;0.40;99.90;;;;;;5014823;28;20330;-76
2022/04/02 01:07:22;;;;;;;0.83;0.83;;;0.40;99.90;;;;;;5014858;28;20200;-77
2022/04/02 01:09:47;;;;;;;0.90;0.90;;;0.40;99.90;;;;;;5014519;28;20205;-76
2022/04/02 01:12:13;;;;;;;1.00;1.00;;;0.50;99.90;;;;;;5015033;28;20227;-76
2022/04/02 01:14:39;;;;;;;1.00;1.00;;;0.40;99.90;;;;;;5015027;28;20177;-76
2022/04/02 01:17:05;;;;;;;0.90;0.90;;;0.40;99.90;;;;;;5014789;28;20176;-76
2022/04/02 01:19:32;;;;;;;0.83;0.83;;;0.50;99.90;;;;;;5014486;28;20180;-76
2022/04/02 01:21:57;;;;;;;0.90;0.90;;;0.60;99.90;;;;;;5015234;28;20169;-76
2022/04/02 01:24:23;;;;;;;0.90;0.90;;;1.00;99.90;;;;;;5014827;28;20204;-77
2022/04/02 01:26:48;;;;;;;0.80;0.80;;;0.60;99.90;;;;;;5015488;28;20299;-76
2022/04/02 01:29:14;;;;;;;0.80;0.80;;;0.50;99.90;;;;;;5013930;28;20187;-76
2022/04/02 01:31:46;;;;;;;0.90;0.90;;;0.60;99.90;;;;;;5014329;28;20240;-77
2022/04/02 01:34:11;;;;;;;0.80;0.80;;;0.60;99.90;;;;;;5014403;28;20180;-76
2022/04/02 01:36:37;;;;;;;0.80;0.80;;;0.60;99.90;;;;;;5016462;28;20515;-77
2022/04/02 01:39:03;;;;;;;0.90;0.90;;;0.60;99.90;;;;;;5031577;28;20210;-77
2022/04/02 01:41:29;;;;;;;0.90;0.90;;;0.60;99.90;;;;;;5021327;28;20392;-78
2022/04/02 01:43:54;;;;;;;1.00;1.00;;;0.60;99.90;;;;;;5018096;28;20234;-78
2022/04/02 01:46:20;;;;;;;0.80;0.80;;;0.80;99.90;;;;;;5017873;28;20664;-77
2022/04/02 01:48:45;;;;;;;0.90;0.90;;;0.60;99.90;;;;;;5016970;28;20572;-78
2022/04/02 01:51:12;;;;;;;0.90;0.90;;;0.60;99.90;;;;;;5017894;28;20228;-77
2022/04/02 01:53:38;;;;;;;0.90;0.90;;;0.60;99.90;;;;;;5016112;28;20185;-76
2022/04/02 01:56:04;;;;;;;0.90;0.90;;;0.70;99.90;;;;;;5017044;28;20184;-79
2022/04/02 01:58:29;;;;;;;0.90;0.90;;;0.60;99.90;;;;;;5020578;28;20188;-78
2022/04/02 02:00:56;;;;;;;0.80;0.80;;;0.60;99.90;;;;;;5018735;28;20689;-78
2022/04/02 02:03:21;;;;;;;0.80;0.80;;;0.80;99.90;;;;;;5018570;28;20244;-79
2022/04/02 02:05:47;;;;;;;1.00;1.00;;;0.60;99.90;;;;;;5022198;28;20180;-79
2022/04/02 02:08:12;;;;;;;0.90;0.90;;;0.60;99.90;;;;;;5019694;28;20173;-78
2022/04/02 02:10:38;;;;;;;0.80;0.80;;;0.60;99.90;;;;;;5020244;28;20577;-77
2022/04/02 02:13:04;;;;;;;0.87;0.87;;;0.60;99.90;;;;;;5018818;28;20311;-77
2022/04/02 02:15:30;;;;;;;0.90;0.90;;;0.60;99.90;;;;;;5017788;28;20184;-78
2022/04/02 02:17:55;;;;;;;0.93;0.93;;;0.60;99.90;;;;;;5020591;28;20180;-77
2022/04/02 02:20:21;;;;;;;0.90;0.90;;;0.50;99.90;;;;;;5022796;28;20216;-79
2022/04/02 02:22:49;;;;;;;0.80;0.80;;;0.50;99.90;;;;;;5020253;28;20180;-77
2022/04/02 02:25:16;;;;;;;0.80;0.80;;;0.60;99.90;;;;;;5019342;28;20215;-78
2022/04/02 02:27:44;;;;;;;0.83;0.83;;;0.60;99.90;;;;;;5019048;28;20180;-77
2022/04/02 02:30:11;;;;;;;0.80;0.80;;;0.60;99.90;;;;;;5016822;28;20208;-78
2022/04/02 02:32:37;;;;;;;0.87;0.87;;;0.60;99.90;;;;;;5018359;28;20191;-78
2022/04/02 02:38:08;;;;;;;0.80;0.80;;;0.60;99.90;;;;;;5019895;28;20207;-79
2022/04/02 02:40:35;;;;;;;0.83;0.83;;;0.80;99.90;;;;;;5022051;28;20200;-79
2022/04/02 02:43:00;;;;;;;0.90;0.90;;;0.70;99.90;;;;;;5019337;28;20176;-79
2022/04/02 02:45:27;;;;;;;0.90;0.90;;;0.70;99.90;;;;;;5019829;28;20772;-78
2022/04/02 02:47:53;;;;;;;0.90;0.90;;;1.10;99.90;;;;;;5017280;28;20204;-77
2022/04/02 02:50:20;;;;;;;0.80;0.80;;;0.80;99.90;;;;;;5016736;28;20258;-79
2022/04/02 02:52:46;;;;;;;0.90;0.90;;;0.70;99.90;;;;;;5023988;28;20268;-79
2022/04/02 02:55:11;;;;;;;0.90;0.90;;;1.10;99.90;;;;;;5023693;28;20192;-78
2022/04/02 02:57:41;;;;;;;0.90;0.90;;;0.80;99.90;;;;;;5016583;28;20204;-77
2022/04/02 03:00:08;;;;;;;0.80;0.80;;;0.80;99.90;;;;;;5017428;28;20232;-78
2022/04/02 03:02:37;;;;;;;0.83;0.83;;;0.70;99.90;;;;;;5018413;28;20177;-79
2022/04/02 03:05:09;;;;;;;0.80;0.80;;;0.70;99.90;;;;;;5021972;28;20197;-79
2022/04/02 03:07:36;;;;;;;0.90;0.90;;;0.70;99.90;;;;;;5022874;28;20181;-79
2022/04/02 03:10:02;;;;;;;0.80;0.80;;;0.70;99.90;;;;;;5019733;28;20193;-78
2022/04/02 03:12:28;;;;;;;0.90;0.90;;;0.70;99.90;;;;;;5020018;28;20445;-79
2022/04/02 03:14:54;;;;;;;0.80;0.80;;;0.60;99.90;;;;;;5020640;28;20175;-79
2022/04/02 03:17:19;;;;;;;0.80;0.80;;;0.60;99.90;;;;;;5024399;28;20192;-79
2022/04/02 03:19:45;;;;;;;0.90;0.90;;;0.70;99.90;;;;;;5021470;28;20176;-78
2022/04/02 03:22:10;;;;;;;0.90;0.90;;;0.50;99.90;;;;;;5022138;28;20184;-79
2022/04/02 03:24:36;;;;;;;0.80;0.80;;;0.90;99.90;;;;;;5021782;28;20173;-77
2022/04/02 03:27:01;;;;;;;0.80;0.80;;;0.50;99.90;;;;;;5021629;28;20233;-77
2022/04/02 03:29:28;;;;;;;0.90;0.90;;;0.40;99.90;;;;;;5013202;28;20180;-77
2022/04/02 03:31:54;;;;;;;0.90;0.90;;;0.40;99.90;;;;;;5013131;28;20313;-77
2022/04/02 03:34:19;;;;;;;0.90;0.90;;;0.40;99.90;;;;;;5012827;28;20832;-77
2022/04/02 03:36:45;;;;;;;0.90;0.90;;;0.40;99.90;;;;;;5012629;28;20594;-77
2022/04/02 03:39:11;;;;;;;0.80;0.80;;;0.70;99.90;;;;;;5011964;28;20660;-77
2022/04/02 03:41:37;;;;;;;0.80;0.80;;;0.40;99.90;;;;;;5012528;28;20201;-76
2022/04/02 03:44:02;;;;;;;0.83;0.83;;;0.40;99.90;;;;;;5012535;28;20199;-78
2022/04/02 03:49:13;;;;;;;0.80;0.80;;;0.30;99.90;;;;;;5011687;28;20183;-77
2022/04/02 03:51:39;;;;;;;0.90;0.90;;;0.30;99.90;;;;;;5011920;28;20713;-77
2022/04/02 03:54:04;;;;;;;0.90;0.90;;;0.60;99.90;;;;;;5012337;28;20255;-77
2022/04/02 03:56:30;;;;;;;0.90;0.90;;;0.30;99.90;;;;;;4994382;28;20618;-76
2022/04/02 03:58:55;;;;;;;0.90;0.90;;;0.20;99.90;;;;;;5013836;28;20181;-79
2022/04/02 04:01:22;;;;;;;0.90;0.90;;;0.20;99.90;;;;;;5018694;28;20258;-78
2022/04/02 04:03:47;;;;;;;0.90;0.90;;;0.20;99.90;;;;;;5020586;28;20177;-78
2022/04/02 04:06:13;;;;;;;0.90;0.90;;;0.20;99.90;;;;;;5015265;28;20212;-78
2022/04/02 04:08:40;;;;;;;0.93;0.93;;;0.30;99.90;;;;;;5014301;28;20177;-78
2022/04/02 04:11:06;;;;;;;0.80;0.80;;;0.70;99.90;;;;;;5014735;28;20267;-79
2022/04/02 04:13:32;;;;;;;0.80;0.80;;;0.40;99.90;;;;;;5016507;28;20183;-79
2022/04/02 04:16:00;;;;;;;1.00;1.00;;;0.30;99.90;;;;;;5015811;28;20295;-79
2022/04/02 04:18:26;;;;;;;0.80;0.80;;;0.30;99.90;;;;;;5014459;28;20173;-77
2022/04/02 04:20:52;;;;;;;0.90;0.90;;;0.30;99.90;;;;;;5014410;28;20196;-78
2022/04/02 04:23:18;;;;;;;0.90;0.90;;;0.30;99.90;;;;;;5013437;28;20663;-78
2022/04/02 04:25:43;;;;;;;0.90;0.90;;;0.30;99.90;;;;;;5030274;28;20191;-77
2022/04/02 04:28:09;;;;;;;0.87;0.87;;;0.50;99.90;;;;;;5051998;28;20643;-77
2022/04/02 04:30:34;;;;;;;0.80;0.80;;;0.20;99.90;;;;;;5051479;28;20233;-77
2022/04/02 04:33:00;;;;;;;0.80;0.80;;;0.40;99.90;;;;;;5052014;28;20186;-77
2022/04/02 04:35:25;;;;;;;1.00;1.00;;;0.30;99.90;;;;;;5051798;28;20260;-77
2022/04/02 04:37:52;;;;;;;0.90;0.90;;;0.20;99.90;;;;;;5054381;28;20178;-77
2022/04/02 04:40:18;;;;;;;0.90;0.90;;;0.10;99.90;;;;;;5055579;28;20194;-77
2022/04/02 04:42:43;;;;;;;0.80;0.80;;;0.20;99.90;;;;;;5055459;28;20179;-77
2022/04/02 04:45:09;;;;;;;0.90;0.90;;;0.10;99.90;;;;;;5055386;28;20190;-77
2022/04/02 04:47:35;;;;;;;0.80;0.80;;;0.10;99.90;;;;;;5055099;28;20186;-76
2022/04/02 04:50:00;;;;;;;0.80;0.80;;;0.10;99.90;;;;;;5054253;28;20249;-76
2022/04/02 04:52:26;;;;;;;0.90;0.90;;;0.20;99.90;;;;;;5054840;28;20284;-77
2022/04/02 04:54:51;;;;;;;0.80;0.80;;;0.40;99.90;;;;;;5055087;28;20179;-77
2022/04/02 04:57:17;;;;;;;0.80;0.80;;;0.20;99.90;;;;;;5054931;28;20182;-77
2022/04/02 04:59:42;;;;;;;0.90;0.90;;;0.20;99.90;;;;;;5054350;28;20171;-77
2022/04/02 05:02:08;;;;;;;0.90;0.90;;;0.40;99.90;;;;;;5055452;28;20320;-77
2022/04/02 05:04:34;;;;;;;0.90;0.90;;;0.30;99.90;;;;;;5054816;28;20167;-78
2022/04/02 05:07:00;;;;;;;0.80;0.80;;;0.20;99.90;;;;;;5038170;28;20241;-78
2022/04/02 05:09:26;;;;;;;0.97;0.97;;;0.20;99.90;;;;;;5033630;28;20167;-77
2022/04/02 05:11:53;;;;;;;0.90;0.90;;;0.10;99.90;;;;;;5037623;28;20310;-78
2022/04/02 05:14:18;;;;;;;0.90;0.90;;;0.10;99.90;;;;;;5024019;28;20710;-79
2022/04/02 05:16:44;;;;;;;0.90;0.90;;;0.00;99.90;;;;;;5039183;28;20180;-78
2022/04/02 05:19:10;;;;;;;0.80;0.80;;;0.10;99.90;;;;;;5038289;28;20394;-78
2022/04/02 05:21:35;;;;;;;0.83;0.83;;;0.10;99.90;;;;;;5039418;28;20203;-78
2022/04/02 05:24:01;;;;;;;0.90;0.90;;;0.10;99.90;;;;;;5047488;28;20184;-78
2022/04/02 05:26:26;;;;;;;0.90;0.90;;;0.00;99.90;;;;;;5134730;22;20317;-77
2022/04/02 05:28:54;;;;;;;1.00;1.00;;;0.10;99.90;;;;;;5074178;28;20183;-76
2022/04/02 05:31:19;;;;;;;0.90;0.90;;;0.20;99.90;;;;;;5074340;28;20675;-77
2022/04/02 05:33:45;;;;;;;0.80;0.80;;;0.30;99.90;;;;;;5074561;28;20178;-76
2022/04/02 05:36:11;;;;;;;0.80;0.80;;;0.20;99.90;;;;;;5074761;28;20213;-77
2022/04/02 05:38:36;;;;;;;0.90;0.90;;;0.10;99.90;;;;;;5074760;28;20262;-77
2022/04/02 05:41:02;;;;;;;0.90;0.90;;;0.10;99.90;;;;;;5072056;28;20592;-75
2022/04/02 05:43:28;;;;;;;0.90;0.90;;;0.20;99.90;;;;;;5070445;28;20174;-76
2022/04/02 05:45:54;;;;;;;0.90;0.90;;;0.30;99.90;;;;;;5073528;28;20170;-74
2022/04/02 05:48:20;;;;;;;0.83;0.83;;;0.20;99.90;;;;;;5073788;28;20173;-77
2022/04/02 05:50:46;;;;;;;0.80;0.80;;;0.30;99.90;;;;;;5073530;28;20198;-75
2022/04/02 05:53:11;;;;;;;0.80;0.80;;;0.30;99.90;;;;;;5073826;28;20673;-75
2022/04/02 05:55:37;;;;;;;0.80;0.80;;;0.20;99.90;;;;;;5073888;28;20647;-74
2022/04/02 05:58:04;;;;;;;0.80;0.80;;;0.20;99.90;;;;;;5071937;28;20268;-75
2022/04/02 06:00:31;;;;;;;0.90;0.90;;;0.30;99.90;;;;;;5073292;28;20193;-75
2022/04/02 06:02:56;;;;;;;0.80;0.80;;;0.10;99.90;;;;;;5069055;28;20186;-75
2022/04/02 06:05:22;;;;;;;0.90;0.90;;;0.10;99.90;;;;;;5073489;28;20243;-75
2022/04/02 06:07:48;;;;;;;0.93;0.93;;;0.10;99.90;;;;;;5073484;28;20171;-73
2022/04/02 06:10:14;;;;;;;0.90;0.90;;;0.20;99.90;;;;;;5071371;28;20194;-75
2022/04/02 06:12:39;;;;;;;0.80;0.80;;;0.20;99.90;;;;;;5075583;28;20229;-75
2022/04/02 06:15:08;;;;;;;0.90;0.90;;;0.20;99.90;;;;;;5077114;28;20175;-75
2022/04/02 06:17:33;;;;;;;0.80;0.80;;;0.10;99.90;;;;;;5077155;28;20179;-75
2022/04/02 06:19:59;;;;;;;0.80;0.80;;;0.30;99.90;;;;;;5073485;28;20201;-73
2022/04/02 06:22:24;;;;;;;0.80;0.80;;;0.30;99.90;;;;;;5072990;28;20181;-73
2022/04/02 06:24:50;;;;;;;0.80;0.80;;;0.20;99.90;;;;;;5073452;28;20181;-74
2022/04/02 06:27:15;;;;;;;0.80;0.80;;;0.20;99.90;;;;;;5073199;28;20636;-73
2022/04/02 06:29:41;;;;;;;0.80;0.80;;;0.30;99.90;;;;;;5072806;28;20651;-74
2022/04/02 06:32:07;;;;;;;0.90;0.90;;;0.40;99.90;;;;;;5072577;28;20217;-75
2022/04/02 06:34:32;;;;;;;0.90;0.90;;;0.30;99.90;;;;;;5073074;28;20170;-72
2022/04/02 06:36:58;;;;;;;0.90;0.90;;;0.30;99.90;;;;;;5073240;28;20183;-73
2022/04/02 06:39:23;;;;;;;0.80;0.80;;;0.30;99.90;;;;;;5073084;28;20257;-73
2022/04/02 06:41:49;;;;;;;0.87;0.87;;;0.30;99.90;;;;;;5073323;28;20594;-73
2022/04/02 06:44:15;;;;;;;0.80;0.80;;;0.30;99.90;;;;;;5072842;28;20253;-72
2022/04/02 06:46:42;;;;;;;0.90;0.90;;;0.30;99.90;;;;;;5073602;28;20189;-77
2022/04/02 06:49:09;;;;;;;0.87;0.87;;;0.30;99.90;;;;;;5072744;28;20468;-74
2022/04/02 06:51:35;;;;;;;0.80;0.80;;;0.40;99.90;;;;;;5072842;28;20242;-74
2022/04/02 06:54:01;;;;;;;0.80;0.80;;;0.30;99.90;;;;;;5071154;28;20182;-74
2022/04/02 06:56:26;;;;;;;0.80;0.80;;;0.30;99.90;;;;;;5076418;28;20171;-73
2022/04/02 06:58:52;;;;;;;0.97;0.97;;;0.30;99.90;;;;;;5093359;28;20166;-83
2022/04/02 07:01:18;;;;;;;0.90;0.90;;;0.50;99.90;;;;;;5090920;28;20636;-73
2022/04/02 07:03:43;;;;;;;0.80;0.80;;;0.60;99.90;;;;;;5089688;28;20171;-73
2022/04/02 07:06:09;;;;;;;0.87;0.87;;;0.60;99.90;;;;;;5090529;28;20193;-75
2022/04/02 07:08:38;;;;;;;0.80;0.80;;;0.50;99.90;;;;;;5086960;28;20178;-74
2022/04/02 07:11:04;;;;;;;0.90;0.90;;;0.50;99.90;;;;;;5088841;28;20252;-75
2022/04/02 07:13:30;;;;;;;0.80;0.80;;;0.50;99.90;;;;;;5089311;28;20178;-76
2022/04/02 07:15:57;;;;;;;0.80;0.80;;;0.40;99.90;;;;;;5086156;28;20253;-76
2022/04/02 07:18:23;;;;;;;0.93;0.93;;;0.50;99.90;;;;;;5080029;28;20178;-76
2022/04/02 07:20:51;;;;;;;1.00;1.00;;;0.50;99.90;;;;;;5072571;28;20221;-74
2022/04/02 07:23:18;;;;;;;0.80;0.80;;;0.50;99.90;;;;;;5073242;28;20205;-73
2022/04/02 07:25:44;;;;;;;0.90;0.90;;;0.50;99.90;;;;;;5072035;28;20175;-74
2022/04/02 07:28:10;;;;;;;0.80;0.80;;;0.50;99.90;;;;;;5074902;28;20194;-76
2022/04/02 07:30:37;;;;;;;0.80;0.80;;;0.50;99.90;;;;;;5087699;28;20202;-73
2022/04/02 07:33:04;;;;;;;0.83;0.83;;;0.50;99.90;;;;;;5072729;28;20186;-73
2022/04/02 07:35:49;;;;;;;0.80;0.80;;;0.60;99.90;;;;;;5071947;28;20178;-77
2022/04/02 07:38:20;;;;;;;0.87;0.87;;;0.50;99.90;;;;;;5067602;28;20205;-74
2022/04/02 07:41:08;;;;;;;0.90;0.90;;;0.60;99.90;;;;;;5073524;28;20255;-74
2022/04/02 07:43:42;;;;;;;0.80;0.80;;;0.70;99.90;;;;;;5071290;28;20171;-75
2022/04/02 07:46:16;;;;;;;0.90;0.90;;;0.60;99.90;;;;;;5070569;28;20190;-75
2022/04/02 07:48:45;;;;;;;0.87;0.87;;;0.80;99.90;;;;;;5085552;28;20541;-74
2022/04/02 07:51:13;;;;;;;0.90;0.90;;;1.30;99.90;;;;;;5091786;28;20220;-75
2022/04/02 07:53:47;;;;;;;0.80;0.80;;;1.10;99.90;;;;;;5086349;28;20195;-73
2022/04/02 07:56:15;;;;;;;0.80;0.80;;;0.90;99.90;;;;;;5072388;28;20183;-75
2022/04/02 07:58:45;;;;;;;0.90;0.90;;;0.90;99.90;;;;;;5072354;28;20179;-75
2022/04/02 08:01:14;;;;;;;0.80;0.80;;;0.90;99.90;;;;;;5071656;28;20208;-75
2022/04/02 08:03:43;;;;;;;0.90;0.90;;;1.00;99.90;;;;;;5063345;28;20223;-74
2022/04/02 08:06:09;;;;;;;0.80;0.80;;;1.10;99.90;;;;;;5071847;28;20179;-74
2022/04/02 08:08:36;;;;;;;0.80;0.80;;;1.10;99.90;;;;;;5072316;28;20532;-75
2022/04/02 08:11:02;;;;;;;0.90;0.90;;;1.00;99.90;;;;;;5069385;28;20659;-76
2022/04/02 08:13:29;;;;;;;0.80;0.80;;;1.00;99.90;;;;;;5090275;28;20250;-74
2022/04/02 08:15:56;;;;;;;0.80;0.80;;;0.70;99.90;;;;;;5055423;28;20207;-76
2022/04/02 08:18:28;;;;;;;0.90;0.90;;;0.70;99.90;;;;;;5071066;28;20174;-75
2022/04/02 08:20:54;;;;;;;0.90;0.90;;;0.70;99.90;;;;;;5071288;28;20301;-75
2022/04/02 08:23:20;;;;;;;0.90;0.90;;;0.70;99.90;;;;;;5072956;28;20190;-74
2022/04/02 08:25:59;;;;;;;0.90;0.90;;;0.70;99.90;;;;;;5070888;28;20189;-74
2022/04/02 08:28:53;;;;;;;0.80;0.80;;;0.60;99.90;;;;;;5070120;28;20261;-75
2022/04/02 08:31:36;;;;;;;0.97;0.97;;;0.60;99.90;;;;;;5071243;28;20215;-75
2022/04/02 08:34:19;;;;;;;0.80;0.80;;;0.70;99.90;;;;;;5069629;28;20192;-75
2022/04/02 08:36:49;;;;;;;0.90;0.90;;;0.70;99.90;;;;;;5071522;28;20205;-77
2022/04/02 08:39:29;;;;;;;0.90;0.90;;;0.90;99.90;;;;;;5069702;28;20228;-75
2022/04/02 08:42:16;;;;;;;0.90;0.90;;;0.80;99.90;;;;;;5051764;28;20256;-76
2022/04/02 08:45:01;;;;;;;0.80;0.80;;;0.80;99.90;;;;;;5051621;28;20641;-74
2022/04/02 08:47:45;;;;;;;0.90;0.90;;;0.80;99.90;;;;;;5051576;28;20175;-76
2022/04/02 08:50:14;;;;;;;0.90;0.90;;;0.90;99.90;;;;;;5050910;28;20191;-76
2022/04/02 08:52:51;;;;;;;0.90;0.90;;;1.20;99.90;;;;;;5051597;28;20218;-73
2022/04/02 08:55:35;;;;;;;0.80;0.80;;;1.20;99.90;;;;;;5069895;28;20174;-75
2022/04/02 08:58:11;;;;;;;0.90;0.90;;;1.10;99.90;;;;;;5069049;28;20182;-74
2022/04/02 09:00:42;;;;;;;0.90;0.90;;;0.90;99.90;;;;;;5068648;28;20251;-75
2022/04/02 09:03:38;;;;;;;0.87;0.87;;;0.70;99.90;;;;;;5070372;28;20269;-74
2022/04/02 09:06:40;;;;;;;0.80;0.80;;;0.70;99.90;;;;;;5070426;28;20175;-74
2022/04/02 09:09:32;;;;;;;1.00;1.00;;;0.90;99.90;;;;;;5070366;28;20173;-74
2022/04/02 09:11:57;;;;;;;0.90;0.90;;;1.00;99.90;;;;;;5069644;28;20213;-75
2022/04/02 09:14:45;;;;;;;0.90;0.90;;;0.90;99.90;;;;;;5071141;28;20167;-75
2022/04/02 09:17:35;;;;;;;0.90;0.90;;;0.70;99.90;;;;;;5068886;28;20185;-74
2022/04/02 09:20:08;;;;;;;0.80;0.80;;;1.70;99.90;;;;;;5069994;28;20698;-73
2022/04/02 09:22:42;;;;;;;0.80;0.80;;;1.20;99.90;;;;;;5071289;28;20174;-75
2022/04/02 09:25:35;;;;;;;0.90;0.90;;;0.80;99.90;;;;;;5075355;28;20605;-73
2022/04/02 09:28:21;;;;;;;0.80;0.80;;;0.70;99.90;;;;;;5075086;28;20197;-75
2022/04/02 09:30:59;;;;;;;1.00;1.00;;;0.60;99.90;;;;;;5073447;28;20213;-73
2022/04/02 09:33:57;;;;;;;0.90;0.90;;;0.70;99.90;;;;;;5074598;28;20182;-75
2022/04/02 09:37:21;;;;;;;0.80;0.80;;;0.70;99.90;;;;;;5074983;28;20179;-73
2022/04/02 09:39:47;;;;;;;1.00;1.00;;;0.70;99.90;;;;;;4972814;28;20185;-71
2022/04/02 09:42:29;;;;;;;0.80;0.80;;;0.60;99.90;;;;;;5053194;28;20183;-71
2022/04/02 09:45:03;;;;;;;0.80;0.80;;;0.60;99.90;;;;;;5074313;28;20178;-72
2022/04/02 09:47:47;;;;;;;0.90;0.90;;;0.80;99.90;;;;;;5074563;28;20228;-75
2022/04/02 09:50:15;;;;;;;0.90;0.90;;;0.60;99.90;;;;;;5074387;28;20196;-72
2022/04/02 09:52:59;;;;;;;0.90;0.90;;;0.70;99.90;;;;;;5074092;28;20228;-72
2022/04/02 09:55:29;;;;;;;0.90;0.90;;;0.70;99.90;;;;;;5074158;28;20198;-72
2022/04/02 09:58:33;;;;;;;0.70;0.70;;;0.60;99.90;;;;;;5073461;28;20907;-72
2022/04/02 10:01:08;;;;;;;0.90;0.90;;;0.60;99.90;;;;;;5073740;28;20247;-71
2022/04/02 10:03:58;;;;;;;0.90;0.90;;;0.80;99.90;;;;;;5073631;28;20638;-72
2022/04/02 10:06:25;;;;;;;0.90;0.90;;;0.90;99.90;;;;;;5073350;28;20231;-73
2022/04/02 10:09:07;;;;;;;0.80;0.80;;;0.90;99.90;;;;;;5067915;28;20171;-76
2022/04/02 10:11:38;;;;;;;0.90;0.90;;;0.80;99.90;;;;;;5070700;28;20214;-72
2022/04/02 10:14:04;;;;;;;0.90;0.90;;;0.70;99.90;;;;;;5073529;28;20178;-72
2022/04/02 10:16:31;;;;;;;0.80;0.80;;;0.70;99.90;;;;;;5073247;28;20185;-72
2022/04/02 10:18:58;;;;;;;1.00;1.00;;;0.70;99.90;;;;;;5072813;28;20224;-73
2022/04/02 10:21:24;;;;;;;0.90;0.90;;;0.80;99.90;;;;;;5072998;28;20213;-72
2022/04/02 10:24:04;;;;;;;0.80;0.80;;;1.00;99.90;;;;;;5073163;28;20175;-72
2022/04/02 10:26:37;;;;;;;0.87;0.87;;;0.90;99.90;;;;;;5072986;28;20214;-72
2022/04/02 10:29:10;;;;;;;1.00;1.00;;;0.70;99.90;;;;;;5071691;28;20223;-73
2022/04/02 10:31:47;;;;;;;0.90;0.90;;;0.80;99.90;;;;;;5069890;28;20202;-73
2022/04/02 10:34:40;;;;;;;0.90;0.90;;;0.70;99.90;;;;;;5072925;28;20217;-72
2022/04/02 10:37:14;;;;;;;0.80;0.80;;;0.90;99.90;;;;;;5071956;28;20226;-73
2022/04/02 10:40:04;;;;;;;0.80;0.80;;;0.90;99.90;;;;;;5073078;28;20170;-72
2022/04/02 10:42:36;;;;;;;0.90;0.90;;;1.00;99.90;;;;;;5074163;28;20202;-72
2022/04/02 10:45:08;;;;;;;0.80;0.80;;;1.10;99.90;;;;;;5073342;28;20174;-72
2022/04/02 10:47:41;;;;;;;0.80;0.80;;;0.90;99.90;;;;;;5073130;28;20647;-71
2022/04/02 10:50:07;;;;;;;0.90;0.90;;;0.90;99.90;;;;;;5072762;28;20222;-71
2022/04/02 10:52:36;;;;;;;0.90;0.90;;;0.90;99.90;;;;;;5072885;28;20230;-73
2022/04/02 10:55:03;;;;;;;0.90;0.90;;;1.00;99.90;;;;;;5072841;28;20542;-72
2022/04/02 10:57:30;;;;;;;0.80;0.80;;;1.30;99.90;;;;;;5073086;28;20178;-72
2022/04/02 11:00:08;;;;;;;0.90;0.90;;;1.30;99.90;;;;;;5072390;28;20190;-71
2022/04/02 11:02:45;;;;;;;0.90;0.90;;;1.20;99.90;;;;;;5073472;28;20182;-72
2022/04/02 11:05:15;;;;;;;0.80;0.80;;;1.40;99.90;;;;;;5072908;28;20182;-73
2022/04/02 11:07:44;;;;;;;1.00;1.00;;;1.40;99.90;;;;;;5072763;28;20182;-73
2022/04/02 11:10:16;;;;;;;0.80;0.80;;;1.60;99.90;;;;;;5072162;28;20191;-71
2022/04/02 11:12:44;;;;;;;0.80;0.80;;;1.60;22.40;;;;;;5072536;28;20210;-71
2022/04/02 11:15:25;;;;;;;0.90;0.90;;;1.50;48.80;;;;;;5072578;28;20178;-73
2022/04/02 11:17:53;;;;;;;0.90;0.90;;;1.50;75.80;;;;;;5072398;28;20183;-73
2022/04/02 11:20:30;;;;;;;0.83;0.83;;;1.30;99.90;;;;;;5071873;28;20608;-70
2022/04/02 11:22:57;;;;;;;0.80;0.80;;;1.30;99.90;;;;;;5071553;28;20216;-71
2022/04/02 11:25:32;;;;;;;0.80;0.80;;;1.20;99.90;;;;;;5071682;28;20639;-71
2022/04/02 11:28:15;;;;;;;0.80;0.80;;;1.20;99.90;;;;;;5069446;28;20683;-72
2022/04/02 11:30:45;;;;;;;0.90;0.90;;;1.20;99.90;;;;;;5069651;28;20186;-72
2022/04/02 11:33:16;;;;;;;0.90;0.90;;;1.20;99.90;;;;;;5070990;28;20263;-72
2022/04/02 11:35:49;;;;;;;0.97;0.97;;;0.90;99.50;;;;;;5071512;28;20250;-70
2022/04/02 11:38:21;;;;;;;0.80;0.80;;;0.80;84.90;;;;;;5071391;28;20204;-70
2022/04/02 11:41:00;;;;;;;0.90;0.90;;;0.90;99.90;;;;;;5068335;28;20194;-70
2022/04/02 11:43:37;;;;;;;0.90;0.90;;;1.00;99.90;;;;;;5071593;28;20179;-70
2022/04/02 11:46:06;;;;;;;0.90;0.90;;;0.80;98.50;;;;;;5071471;28;20235;-71
2022/04/02 11:51:18;;;;;;;0.90;0.90;;;0.90;39.40;;;;;;5049502;28;20230;-75
2022/04/02 11:53:44;;;;;;;0.80;0.80;;;0.80;29.70;;;;;;5051708;28;20208;-74
2022/04/02 11:56:24;;;;;;;0.90;0.90;;;0.90;69.20;;;;;;5051303;28;20175;-73
2022/04/02 11:58:51;;;;;;;1.00;1.00;;;1.70;47.20;;;;;;5049776;28;20523;-70
2022/04/02 12:01:20;;;;;;;0.90;0.90;;;1.40;1.00;;;;;;5038728;28;20715;-75
2022/04/02 12:03:45;;;;;;;0.93;0.93;;;1.50;92.30;;;;;;5050404;28;20178;-73
2022/04/02 12:06:11;;;;;;;0.90;0.90;;;1.30;91.30;;;;;;5050374;28;20554;-72
2022/04/02 12:08:43;;;;;;;0.80;0.80;;;1.20;1.00;;;;;;5050394;28;20305;-72
2022/04/02 12:11:10;;;;;;;0.80;0.80;;;1.10;1.00;;;;;;5049737;28;20210;-71
2022/04/02 12:13:36;;;;;;;0.83;0.83;;;1.40;1.00;;;;;;5050187;28;20183;-73
2022/04/02 12:16:04;;;;;;;0.80;0.80;;;1.20;3.60;;;;;;5050336;28;20269;-72
2022/04/02 12:18:30;;;;;;;0.80;0.80;;;1.20;1.00;;;;;;5050412;28;20182;-77
2022/04/02 12:21:07;;;;;;;0.90;0.90;;;1.40;64.20;;;;;;5049807;28;20853;-73
2022/04/02 12:23:33;;;;;;;0.90;0.90;;;1.20;1.00;;;;;;5050066;28;20666;-74
2022/04/02 12:26:02;;;;;;;0.87;0.87;;;1.30;19.90;;;;;;5049890;28;20463;-73
2022/04/02 12:28:27;;;;;;;0.90;0.90;;;1.40;2.10;;;;;;5049785;28;20182;-74
2022/04/02 12:31:02;;;;;;;0.90;0.90;;;1.20;1.00;;;;;;5049438;28;20706;-78
2022/04/02 12:33:29;;;;;;;1.00;1.00;;;1.40;44.10;;;;;;5049802;28;20236;-74
2022/04/02 12:35:57;;;;;;;0.80;0.80;;;1.70;1.00;;;;;;5049752;28;20179;-73
2022/04/02 12:38:24;;;;;;;0.90;0.90;;;1.30;1.00;;;;;;5042868;28;20675;-74
2022/04/02 12:40:50;;;;;;;0.80;0.80;;;1.40;48.50;;;;;;5028831;28;20187;-74
2022/04/02 12:43:29;;;;;;;0.97;0.97;;;1.40;27.00;;;;;;5035516;28;20176;-75
2022/04/02 12:45:56;;;;;;;0.90;0.90;;;1.60;99.90;;;;;;5035908;28;20193;-76
2022/04/02 12:48:24;;;;;;;0.90;0.90;;;1.70;70.80;;;;;;5030187;28;20594;-75
2022/04/02 12:50:52;;;;;;;0.80;0.80;;;1.50;32.00;;;;;;5046612;28;20210;-76
2022/04/02 12:53:37;;;;;;;0.90;0.90;;;1.30;1.00;;;;;;5029316;28;20724;-75
2022/04/02 12:56:06;;;;;;;0.80;0.80;;;1.40;99.90;;;;;;5034820;28;20225;-76
2022/04/02 12:58:33;;;;;;;0.90;0.90;;;1.30;28.70;;;;;;5038460;28;20221;-77
2022/04/02 13:01:14;;;;;;;0.80;0.80;;;1.60;94.20;;;;;;5053969;28;20207;-74
2022/04/02 13:04:05;;;;;;;0.90;0.90;;;1.70;1.00;;;;;;5054225;28;20536;-75
2022/04/02 13:06:34;;;;;;;0.90;0.90;;;1.40;87.00;;;;;;5041667;28;20257;-74
2022/04/02 13:09:12;;;;;;;0.90;0.90;;;1.30;99.90;;;;;;5053845;28;20187;-74
2022/04/02 13:11:38;;;;;;;0.90;0.90;;;1.00;22.80;;;;;;5054163;28;20748;-74
2022/04/02 13:14:12;;;;;;;0.90;0.90;;;1.10;61.20;;;;;;5054006;28;20183;-75
2022/04/02 13:16:39;;;;;;;0.90;0.90;;;1.50;45.00;;;;;;5036004;28;20185;-75
2022/04/02 13:21:55;;;;;;;0.90;0.90;;;1.70;70.10;;;;;;5054472;28;20249;-76
2022/04/02 13:24:29;;;;;;;0.90;0.90;;;1.50;99.90;;;;;;5054125;28;20180;-75